sensor_id;sensor_type;location;lat;lon;timestamp;P1;durP1;ratioP1;P2;durP2;ratioP2
9310;SDS011;4694;52.464;13.480;2024-01-15T00:00:09;17.20;;;9.13;;
9310;SDS011;4694;52.464;13.480;2024-01-15T00:02:37;14.45;;;7.82;;
9310;SDS011;4694;52.464;13.480;2024-01-15T00:05:05;10.18;;;6.80;;
9310;SDS011;4694;52.464;13.480;2024-01-15T00:07:32;13.38;;;7.40;;
9310;SDS011;4694;52.464;13.480;2024-01-15T00:09:59;17.00;;;7.28;;
9310;SDS011;4694;52.464;13.480;2024-01-15T00:12:26;15.38;;;8.10;;
9310;SDS011;4694;52.464;13.480;2024-01-15T00:14:53;18.13;;;9.10;;
9310;SDS011;4694;52.464;13.480;2024-01-15T00:17:20;12.82;;;6.97;;
9310;SDS011;4694;52.464;13.480;2024-01-15T00:19:46;16.85;;;7.63;;
9310;SDS011;4694;52.464;13.480;2024-01-15T00:22:14;15.52;;;7.93;;
9310;SDS011;4694;52.464;13.480;2024-01-15T00:24:41;15.18;;;7.25;;
9310;SDS011;4694;52.464;13.480;2024-01-15T00:27:08;15.70;;;9.25;;
9310;SDS011;4694;52.464;13.480;2024-01-15T00:29:34;16.70;;;8.25;;
9310;SDS011;4694;52.464;13.480;2024-01-15T00:32:01;15.43;;;6.95;;
9310;SDS011;4694;52.464;13.480;2024-01-15T00:34:27;14.80;;;6.43;;
9310;SDS011;4694;52.464;13.480;2024-01-15T00:36:54;14.65;;;7.30;;
9310;SDS011;4694;52.464;13.480;2024-01-15T00:39:22;15.57;;;7.78;;
9310;SDS011;4694;52.464;13.480;2024-01-15T00:41:49;10.30;;;6.60;;
9310;SDS011;4694;52.464;13.480;2024-01-15T00:44:15;13.32;;;7.55;;
9310;SDS011;4694;52.464;13.480;2024-01-15T00:46:43;20.33;;;8.93;;
9310;SDS011;4694;52.464;13.480;2024-01-15T00:49:10;13.00;;;7.63;;
9310;SDS011;4694;52.464;13.480;2024-01-15T00:51:37;11.80;;;6.88;;
9310;SDS011;4694;52.464;13.480;2024-01-15T00:54:04;13.93;;;7.57;;
9310;SDS011;4694;52.464;13.480;2024-01-15T00:56:32;15.35;;;7.18;;
9310;SDS011;4694;52.464;13.480;2024-01-15T00:59:00;15.45;;;7.07;;
9310;SDS011;4694;52.464;13.480;2024-01-15T01:01:27;13.93;;;6.03;;
9310;SDS011;4694;52.464;13.480;2024-01-15T01:03:54;17.48;;;6.78;;
9310;SDS011;4694;52.464;13.480;2024-01-15T01:06:21;13.05;;;7.43;;
9310;SDS011;4694;52.464;13.480;2024-01-15T01:08:48;11.07;;;6.43;;
9310;SDS011;4694;52.464;13.480;2024-01-15T01:11:14;14.23;;;8.60;;
9310;SDS011;4694;52.464;13.480;2024-01-15T01:13:43;12.63;;;6.78;;
9310;SDS011;4694;52.464;13.480;2024-01-15T01:16:09;15.30;;;7.85;;
9310;SDS011;4694;52.464;13.480;2024-01-15T01:18:36;15.25;;;6.95;;
9310;SDS011;4694;52.464;13.480;2024-01-15T01:21:03;19.10;;;10.82;;
9310;SDS011;4694;52.464;13.480;2024-01-15T01:23:29;18.77;;;7.63;;
9310;SDS011;4694;52.464;13.480;2024-01-15T01:25:56;16.55;;;7.47;;
9310;SDS011;4694;52.464;13.480;2024-01-15T01:28:22;14.57;;;8.77;;
9310;SDS011;4694;52.464;13.480;2024-01-15T01:30:51;15.88;;;7.03;;
9310;SDS011;4694;52.464;13.480;2024-01-15T01:33:18;16.13;;;9.77;;
9310;SDS011;4694;52.464;13.480;2024-01-15T01:35:45;15.90;;;7.95;;
9310;SDS011;4694;52.464;13.480;2024-01-15T01:38:13;18.92;;;10.15;;
9310;SDS011;4694;52.464;13.480;2024-01-15T01:40:40;18.48;;;7.65;;
9310;SDS011;4694;52.464;13.480;2024-01-15T01:43:06;20.35;;;8.70;;
9310;SDS011;4694;52.464;13.480;2024-01-15T01:45:35;17.17;;;8.30;;
9310;SDS011;4694;52.464;13.480;2024-01-15T01:48:04;15.65;;;8.23;;
9310;SDS011;4694;52.464;13.480;2024-01-15T01:50:31;17.95;;;8.02;;
9310;SDS011;4694;52.464;13.480;2024-01-15T01:52:58;21.00;;;8.27;;
9310;SDS011;4694;52.464;13.480;2024-01-15T01:55:26;23.67;;;11.13;;
9310;SDS011;4694;52.464;13.480;2024-01-15T01:57:55;24.05;;;8.70;;
9310;SDS011;4694;52.464;13.480;2024-01-15T02:00:22;22.20;;;9.82;;
9310;SDS011;4694;52.464;13.480;2024-01-15T02:02:49;18.17;;;8.43;;
9310;SDS011;4694;52.464;13.480;2024-01-15T02:05:18;20.42;;;9.25;;
9310;SDS011;4694;52.464;13.480;2024-01-15T02:07:46;24.13;;;9.48;;
9310;SDS011;4694;52.464;13.480;2024-01-15T02:10:13;12.20;;;7.53;;
9310;SDS011;4694;52.464;13.480;2024-01-15T02:12:40;18.02;;;9.73;;
9310;SDS011;4694;52.464;13.480;2024-01-15T02:15:08;21.58;;;9.43;;
9310;SDS011;4694;52.464;13.480;2024-01-15T02:17:35;17.75;;;8.13;;
9310;SDS011;4694;52.464;13.480;2024-01-15T02:20:23;21.10;;;9.52;;
9310;SDS011;4694;52.464;13.480;2024-01-15T02:22:50;21.75;;;8.75;;
9310;SDS011;4694;52.464;13.480;2024-01-15T02:25:18;22.42;;;8.43;;
9310;SDS011;4694;52.464;13.480;2024-01-15T02:27:46;21.80;;;8.75;;
9310;SDS011;4694;52.464;13.480;2024-01-15T02:30:13;18.92;;;8.02;;
9310;SDS011;4694;52.464;13.480;2024-01-15T02:32:41;15.30;;;8.07;;
9310;SDS011;4694;52.464;13.480;2024-01-15T02:35:08;20.15;;;8.85;;
9310;SDS011;4694;52.464;13.480;2024-01-15T02:37:35;17.48;;;7.82;;
9310;SDS011;4694;52.464;13.480;2024-01-15T02:40:02;24.85;;;9.65;;
9310;SDS011;4694;52.464;13.480;2024-01-15T02:42:30;14.15;;;6.57;;
9310;SDS011;4694;52.464;13.480;2024-01-15T02:44:57;15.52;;;8.00;;
9310;SDS011;4694;52.464;13.480;2024-01-15T02:47:24;16.50;;;8.40;;
9310;SDS011;4694;52.464;13.480;2024-01-15T02:49:50;13.43;;;7.00;;
9310;SDS011;4694;52.464;13.480;2024-01-15T02:52:17;14.65;;;8.43;;
9310;SDS011;4694;52.464;13.480;2024-01-15T02:54:44;14.32;;;5.30;;
9310;SDS011;4694;52.464;13.480;2024-01-15T02:57:10;8.85;;;5.35;;
9310;SDS011;4694;52.464;13.480;2024-01-15T02:59:38;12.63;;;6.30;;
9310;SDS011;4694;52.464;13.480;2024-01-15T03:02:05;11.02;;;5.20;;
9310;SDS011;4694;52.464;13.480;2024-01-15T03:04:32;19.13;;;7.30;;
9310;SDS011;4694;52.464;13.480;2024-01-15T03:06:58;14.40;;;6.63;;
9310;SDS011;4694;52.464;13.480;2024-01-15T03:09:25;13.02;;;6.32;;
9310;SDS011;4694;52.464;13.480;2024-01-15T03:11:51;11.25;;;6.07;;
9310;SDS011;4694;52.464;13.480;2024-01-15T03:14:18;13.35;;;6.65;;
9310;SDS011;4694;52.464;13.480;2024-01-15T03:16:46;10.80;;;4.95;;
9310;SDS011;4694;52.464;13.480;2024-01-15T03:19:13;20.42;;;6.75;;
9310;SDS011;4694;52.464;13.480;2024-01-15T03:21:39;13.50;;;6.68;;
9310;SDS011;4694;52.464;13.480;2024-01-15T03:24:06;10.57;;;6.40;;
9310;SDS011;4694;52.464;13.480;2024-01-15T03:26:33;13.27;;;5.97;;
9310;SDS011;4694;52.464;13.480;2024-01-15T03:28:59;13.38;;;6.60;;
9310;SDS011;4694;52.464;13.480;2024-01-15T03:31:26;11.38;;;6.07;;
9310;SDS011;4694;52.464;13.480;2024-01-15T03:33:54;11.25;;;5.30;;
9310;SDS011;4694;52.464;13.480;2024-01-15T03:36:21;11.88;;;5.72;;
9310;SDS011;4694;52.464;13.480;2024-01-15T03:38:47;12.70;;;4.85;;
9310;SDS011;4694;52.464;13.480;2024-01-15T03:41:14;11.23;;;5.35;;
9310;SDS011;4694;52.464;13.480;2024-01-15T03:43:41;8.80;;;5.28;;
9310;SDS011;4694;52.464;13.480;2024-01-15T03:46:08;12.95;;;5.90;;
9310;SDS011;4694;52.464;13.480;2024-01-15T03:48:34;9.63;;;5.63;;
9310;SDS011;4694;52.464;13.480;2024-01-15T03:51:03;13.07;;;4.60;;
9310;SDS011;4694;52.464;13.480;2024-01-15T03:53:30;9.75;;;4.03;;
9310;SDS011;4694;52.464;13.480;2024-01-15T03:55:57;10.90;;;5.53;;
9310;SDS011;4694;52.464;13.480;2024-01-15T03:58:23;14.98;;;4.60;;
9310;SDS011;4694;52.464;13.480;2024-01-15T04:00:50;9.10;;;5.03;;
9310;SDS011;4694;52.464;13.480;2024-01-15T04:03:16;11.30;;;4.60;;
9310;SDS011;4694;52.464;13.480;2024-01-15T04:05:43;11.45;;;4.40;;
9310;SDS011;4694;52.464;13.480;2024-01-15T04:08:11;14.85;;;5.13;;
9310;SDS011;4694;52.464;13.480;2024-01-15T04:10:38;10.75;;;4.88;;
9310;SDS011;4694;52.464;13.480;2024-01-15T04:13:05;10.52;;;4.35;;
9310;SDS011;4694;52.464;13.480;2024-01-15T04:15:31;17.60;;;4.35;;
9310;SDS011;4694;52.464;13.480;2024-01-15T04:17:58;9.13;;;5.22;;
9310;SDS011;4694;52.464;13.480;2024-01-15T04:20:26;15.07;;;4.95;;
9310;SDS011;4694;52.464;13.480;2024-01-15T04:22:52;8.70;;;4.60;;
9310;SDS011;4694;52.464;13.480;2024-01-15T04:25:20;10.82;;;3.88;;
9310;SDS011;4694;52.464;13.480;2024-01-15T04:27:47;7.75;;;3.60;;
9310;SDS011;4694;52.464;13.480;2024-01-15T04:30:13;8.50;;;3.28;;
9310;SDS011;4694;52.464;13.480;2024-01-15T04:32:40;6.25;;;3.20;;
9310;SDS011;4694;52.464;13.480;2024-01-15T04:35:07;11.77;;;3.70;;
9310;SDS011;4694;52.464;13.480;2024-01-15T04:37:34;7.45;;;3.50;;
9310;SDS011;4694;52.464;13.480;2024-01-15T04:40:00;8.05;;;3.08;;
9310;SDS011;4694;52.464;13.480;2024-01-15T04:42:30;11.88;;;4.20;;
9310;SDS011;4694;52.464;13.480;2024-01-15T04:44:56;7.63;;;3.10;;
9310;SDS011;4694;52.464;13.480;2024-01-15T04:47:23;13.05;;;4.00;;
9310;SDS011;4694;52.464;13.480;2024-01-15T04:49:50;14.68;;;3.20;;
9310;SDS011;4694;52.464;13.480;2024-01-15T04:52:17;7.72;;;1.80;;
9310;SDS011;4694;52.464;13.480;2024-01-15T04:54:43;5.65;;;2.30;;
9310;SDS011;4694;52.464;13.480;2024-01-15T04:57:10;7.25;;;2.60;;
9310;SDS011;4694;52.464;13.480;2024-01-15T04:59:38;6.20;;;2.80;;
9310;SDS011;4694;52.464;13.480;2024-01-15T05:02:05;14.32;;;3.35;;
9310;SDS011;4694;52.464;13.480;2024-01-15T05:04:32;7.20;;;3.35;;
9310;SDS011;4694;52.464;13.480;2024-01-15T05:06:58;7.78;;;1.85;;
9310;SDS011;4694;52.464;13.480;2024-01-15T05:09:25;9.70;;;2.95;;
9310;SDS011;4694;52.464;13.480;2024-01-15T05:11:52;5.60;;;2.03;;
9310;SDS011;4694;52.464;13.480;2024-01-15T05:14:18;10.02;;;2.60;;
9310;SDS011;4694;52.464;13.480;2024-01-15T05:16:47;8.57;;;2.83;;
9310;SDS011;4694;52.464;13.480;2024-01-15T05:19:15;15.73;;;3.80;;
9310;SDS011;4694;52.464;13.480;2024-01-15T05:21:41;13.70;;;3.20;;
9310;SDS011;4694;52.464;13.480;2024-01-15T05:24:08;7.70;;;2.75;;
9310;SDS011;4694;52.464;13.480;2024-01-15T05:26:34;7.28;;;2.90;;
9310;SDS011;4694;52.464;13.480;2024-01-15T05:29:01;6.82;;;1.70;;
9310;SDS011;4694;52.464;13.480;2024-01-15T05:31:28;9.30;;;2.25;;
9310;SDS011;4694;52.464;13.480;2024-01-15T05:33:56;6.60;;;2.47;;
9310;SDS011;4694;52.464;13.480;2024-01-15T05:36:23;8.63;;;2.83;;
9310;SDS011;4694;52.464;13.480;2024-01-15T05:38:50;6.97;;;2.13;;
9310;SDS011;4694;52.464;13.480;2024-01-15T05:41:17;9.90;;;2.50;;
9310;SDS011;4694;52.464;13.480;2024-01-15T05:43:44;6.60;;;1.63;;
9310;SDS011;4694;52.464;13.480;2024-01-15T05:46:10;11.00;;;3.40;;
9310;SDS011;4694;52.464;13.480;2024-01-15T05:48:37;7.18;;;2.28;;
9310;SDS011;4694;52.464;13.480;2024-01-15T05:51:05;5.05;;;2.45;;
9310;SDS011;4694;52.464;13.480;2024-01-15T05:53:32;7.50;;;2.03;;
9310;SDS011;4694;52.464;13.480;2024-01-15T05:55:58;3.72;;;1.52;;
9310;SDS011;4694;52.464;13.480;2024-01-15T05:58:26;6.18;;;2.47;;
9310;SDS011;4694;52.464;13.480;2024-01-15T06:00:52;5.07;;;2.08;;
9310;SDS011;4694;52.464;13.480;2024-01-15T06:03:19;6.38;;;3.03;;
9310;SDS011;4694;52.464;13.480;2024-01-15T06:05:46;7.72;;;3.13;;
9310;SDS011;4694;52.464;13.480;2024-01-15T06:08:14;7.10;;;3.50;;
9310;SDS011;4694;52.464;13.480;2024-01-15T06:10:40;7.30;;;1.88;;
9310;SDS011;4694;52.464;13.480;2024-01-15T06:13:07;8.27;;;2.08;;
9310;SDS011;4694;52.464;13.480;2024-01-15T06:15:34;4.18;;;2.30;;
9310;SDS011;4694;52.464;13.480;2024-01-15T06:18:00;7.93;;;2.90;;
9310;SDS011;4694;52.464;13.480;2024-01-15T06:20:27;13.90;;;2.53;;
9310;SDS011;4694;52.464;13.480;2024-01-15T06:22:54;7.95;;;2.83;;
9310;SDS011;4694;52.464;13.480;2024-01-15T06:25:22;10.15;;;2.20;;
9310;SDS011;4694;52.464;13.480;2024-01-15T06:27:48;7.35;;;2.30;;
9310;SDS011;4694;52.464;13.480;2024-01-15T06:30:15;7.70;;;2.47;;
9310;SDS011;4694;52.464;13.480;2024-01-15T06:32:42;7.30;;;2.13;;
9310;SDS011;4694;52.464;13.480;2024-01-15T06:35:09;12.05;;;2.88;;
9310;SDS011;4694;52.464;13.480;2024-01-15T06:37:36;8.80;;;2.17;;
9310;SDS011;4694;52.464;13.480;2024-01-15T06:40:03;7.53;;;2.63;;
9310;SDS011;4694;52.464;13.480;2024-01-15T06:42:32;7.07;;;2.20;;
9310;SDS011;4694;52.464;13.480;2024-01-15T06:44:59;11.30;;;1.92;;
9310;SDS011;4694;52.464;13.480;2024-01-15T06:47:25;6.30;;;1.50;;
9310;SDS011;4694;52.464;13.480;2024-01-15T06:49:52;5.93;;;1.85;;
9310;SDS011;4694;52.464;13.480;2024-01-15T06:52:20;7.05;;;1.52;;
9310;SDS011;4694;52.464;13.480;2024-01-15T06:54:46;7.90;;;2.45;;
9310;SDS011;4694;52.464;13.480;2024-01-15T06:57:13;5.43;;;1.20;;
9310;SDS011;4694;52.464;13.480;2024-01-15T06:59:41;8.60;;;1.67;;
9310;SDS011;4694;52.464;13.480;2024-01-15T07:02:08;10.40;;;1.50;;
9310;SDS011;4694;52.464;13.480;2024-01-15T07:04:35;5.78;;;1.15;;
9310;SDS011;4694;52.464;13.480;2024-01-15T07:07:01;7.10;;;1.98;;
9310;SDS011;4694;52.464;13.480;2024-01-15T07:09:28;8.23;;;1.13;;
9310;SDS011;4694;52.464;13.480;2024-01-15T07:11:54;2.92;;;0.90;;
9310;SDS011;4694;52.464;13.480;2024-01-15T07:14:23;5.70;;;1.25;;
9310;SDS011;4694;52.464;13.480;2024-01-15T07:16:51;4.68;;;1.08;;
9310;SDS011;4694;52.464;13.480;2024-01-15T07:19:17;4.82;;;1.13;;
9310;SDS011;4694;52.464;13.480;2024-01-15T07:21:44;4.35;;;2.28;;
9310;SDS011;4694;52.464;13.480;2024-01-15T07:24:11;7.32;;;1.20;;
9310;SDS011;4694;52.464;13.480;2024-01-15T07:26:39;3.63;;;0.65;;
9310;SDS011;4694;52.464;13.480;2024-01-15T07:29:06;9.45;;;2.47;;
9310;SDS011;4694;52.464;13.480;2024-01-15T07:31:33;9.23;;;2.53;;
9310;SDS011;4694;52.464;13.480;2024-01-15T07:34:01;4.07;;;1.20;;
9310;SDS011;4694;52.464;13.480;2024-01-15T07:36:29;4.20;;;1.35;;
9310;SDS011;4694;52.464;13.480;2024-01-15T07:38:55;6.90;;;1.35;;
9310;SDS011;4694;52.464;13.480;2024-01-15T07:41:22;3.92;;;1.13;;
9310;SDS011;4694;52.464;13.480;2024-01-15T07:43:49;6.35;;;1.63;;
9310;SDS011;4694;52.464;13.480;2024-01-15T07:46:16;4.40;;;0.98;;
9310;SDS011;4694;52.464;13.480;2024-01-15T07:48:42;12.40;;;1.35;;
9310;SDS011;4694;52.464;13.480;2024-01-15T07:51:10;13.15;;;1.65;;
9310;SDS011;4694;52.464;13.480;2024-01-15T07:53:37;11.13;;;4.28;;
9310;SDS011;4694;52.464;13.480;2024-01-15T07:56:05;11.13;;;1.45;;
9310;SDS011;4694;52.464;13.480;2024-01-15T07:58:31;11.05;;;1.83;;
9310;SDS011;4694;52.464;13.480;2024-01-15T08:00:58;7.10;;;1.98;;
9310;SDS011;4694;52.464;13.480;2024-01-15T08:03:25;9.13;;;1.23;;
9310;SDS011;4694;52.464;13.480;2024-01-15T08:05:52;3.92;;;1.15;;
9310;SDS011;4694;52.464;13.480;2024-01-15T08:08:20;9.68;;;1.50;;
9310;SDS011;4694;52.464;13.480;2024-01-15T08:10:48;7.03;;;1.33;;
9310;SDS011;4694;52.464;13.480;2024-01-15T08:13:15;10.23;;;2.20;;
9310;SDS011;4694;52.464;13.480;2024-01-15T08:15:41;3.53;;;1.17;;
9310;SDS011;4694;52.464;13.480;2024-01-15T08:18:08;5.57;;;1.45;;
9310;SDS011;4694;52.464;13.480;2024-01-15T08:20:35;51.97;;;3.97;;
9310;SDS011;4694;52.464;13.480;2024-01-15T08:23:03;4.63;;;1.08;;
9310;SDS011;4694;52.464;13.480;2024-01-15T08:25:31;5.65;;;1.50;;
9310;SDS011;4694;52.464;13.480;2024-01-15T08:27:58;7.25;;;1.30;;
9310;SDS011;4694;52.464;13.480;2024-01-15T08:30:25;9.27;;;1.90;;
9310;SDS011;4694;52.464;13.480;2024-01-15T08:32:52;5.18;;;1.70;;
9310;SDS011;4694;52.464;13.480;2024-01-15T08:35:19;11.95;;;1.83;;
9310;SDS011;4694;52.464;13.480;2024-01-15T08:37:47;4.68;;;2.03;;
9310;SDS011;4694;52.464;13.480;2024-01-15T08:40:14;6.32;;;2.03;;
9310;SDS011;4694;52.464;13.480;2024-01-15T08:42:43;13.82;;;2.67;;
9310;SDS011;4694;52.464;13.480;2024-01-15T08:45:10;4.25;;;1.30;;
9310;SDS011;4694;52.464;13.480;2024-01-15T08:47:37;4.45;;;2.38;;
9310;SDS011;4694;52.464;13.480;2024-01-15T08:50:04;6.85;;;1.65;;
9310;SDS011;4694;52.464;13.480;2024-01-15T08:52:34;5.25;;;2.90;;
9310;SDS011;4694;52.464;13.480;2024-01-15T08:55:01;4.80;;;1.70;;
9310;SDS011;4694;52.464;13.480;2024-01-15T08:57:29;8.13;;;1.85;;
9310;SDS011;4694;52.464;13.480;2024-01-15T08:59:57;9.30;;;2.33;;
9310;SDS011;4694;52.464;13.480;2024-01-15T09:02:24;6.57;;;1.67;;
9310;SDS011;4694;52.464;13.480;2024-01-15T09:04:51;7.78;;;2.42;;
9310;SDS011;4694;52.464;13.480;2024-01-15T09:07:17;6.07;;;1.30;;
9310;SDS011;4694;52.464;13.480;2024-01-15T09:09:44;4.72;;;1.25;;
9310;SDS011;4694;52.464;13.480;2024-01-15T09:12:11;8.50;;;1.17;;
9310;SDS011;4694;52.464;13.480;2024-01-15T09:14:40;9.48;;;1.33;;
9310;SDS011;4694;52.464;13.480;2024-01-15T09:17:08;8.75;;;1.90;;
9310;SDS011;4694;52.464;13.480;2024-01-15T09:19:35;5.40;;;1.55;;
9310;SDS011;4694;52.464;13.480;2024-01-15T09:22:02;6.18;;;1.40;;
9310;SDS011;4694;52.464;13.480;2024-01-15T09:24:28;10.75;;;2.35;;
9310;SDS011;4694;52.464;13.480;2024-01-15T09:26:57;5.45;;;1.92;;
9310;SDS011;4694;52.464;13.480;2024-01-15T09:29:24;5.70;;;1.60;;
9310;SDS011;4694;52.464;13.480;2024-01-15T09:31:51;4.05;;;1.33;;
9310;SDS011;4694;52.464;13.480;2024-01-15T09:34:21;11.98;;;2.25;;
9310;SDS011;4694;52.464;13.480;2024-01-15T09:36:47;3.17;;;1.13;;
9310;SDS011;4694;52.464;13.480;2024-01-15T09:39:14;9.52;;;1.65;;
9310;SDS011;4694;52.464;13.480;2024-01-15T09:41:41;6.82;;;1.88;;
9310;SDS011;4694;52.464;13.480;2024-01-15T09:44:10;8.30;;;1.70;;
9310;SDS011;4694;52.464;13.480;2024-01-15T09:46:37;7.07;;;1.70;;
9310;SDS011;4694;52.464;13.480;2024-01-15T09:49:05;11.70;;;2.38;;
9310;SDS011;4694;52.464;13.480;2024-01-15T09:51:33;6.07;;;1.20;;
9310;SDS011;4694;52.464;13.480;2024-01-15T09:54:01;12.40;;;2.27;;
9310;SDS011;4694;52.464;13.480;2024-01-15T09:56:29;7.55;;;1.40;;
9310;SDS011;4694;52.464;13.480;2024-01-15T09:58:56;7.55;;;2.30;;
9310;SDS011;4694;52.464;13.480;2024-01-15T10:01:23;7.15;;;1.65;;
9310;SDS011;4694;52.464;13.480;2024-01-15T10:03:51;3.30;;;1.52;;
9310;SDS011;4694;52.464;13.480;2024-01-15T10:06:18;5.13;;;2.50;;
9310;SDS011;4694;52.464;13.480;2024-01-15T10:08:49;6.18;;;0.93;;
9310;SDS011;4694;52.464;13.480;2024-01-15T10:11:17;5.25;;;2.00;;
9310;SDS011;4694;52.464;13.480;2024-01-15T10:13:44;9.57;;;1.98;;
9310;SDS011;4694;52.464;13.480;2024-01-15T10:16:10;7.18;;;1.90;;
9310;SDS011;4694;52.464;13.480;2024-01-15T10:18:37;4.13;;;1.27;;
9310;SDS011;4694;52.464;13.480;2024-01-15T10:21:05;1.70;;;1.30;;
9310;SDS011;4694;52.464;13.480;2024-01-15T10:23:33;5.10;;;1.95;;
9310;SDS011;4694;52.464;13.480;2024-01-15T10:26:02;5.75;;;1.90;;
9310;SDS011;4694;52.464;13.480;2024-01-15T10:28:29;4.68;;;1.20;;
9310;SDS011;4694;52.464;13.480;2024-01-15T10:30:57;3.33;;;0.90;;
9310;SDS011;4694;52.464;13.480;2024-01-15T10:33:26;1.00;;;0.80;;
9310;SDS011;4694;52.464;13.480;2024-01-15T10:35:53;2.92;;;1.10;;
9310;SDS011;4694;52.464;13.480;2024-01-15T10:38:21;3.08;;;1.23;;
9310;SDS011;4694;52.464;13.480;2024-01-15T10:40:50;6.25;;;1.80;;
9310;SDS011;4694;52.464;13.480;2024-01-15T10:43:19;6.65;;;1.27;;
9310;SDS011;4694;52.464;13.480;2024-01-15T10:45:46;6.07;;;1.17;;
9310;SDS011;4694;52.464;13.480;2024-01-15T10:48:15;8.07;;;1.20;;
9310;SDS011;4694;52.464;13.480;2024-01-15T10:50:43;2.22;;;0.82;;
9310;SDS011;4694;52.464;13.480;2024-01-15T10:53:13;5.45;;;1.10;;
9310;SDS011;4694;52.464;13.480;2024-01-15T10:55:42;4.67;;;1.80;;
9310;SDS011;4694;52.464;13.480;2024-01-15T10:58:09;6.25;;;1.00;;
9310;SDS011;4694;52.464;13.480;2024-01-15T11:00:37;3.05;;;1.10;;
9310;SDS011;4694;52.464;13.480;2024-01-15T11:03:05;3.17;;;1.05;;
9310;SDS011;4694;52.464;13.480;2024-01-15T11:05:33;7.13;;;0.90;;
9310;SDS011;4694;52.464;13.480;2024-01-15T11:08:00;3.22;;;1.00;;
9310;SDS011;4694;52.464;13.480;2024-01-15T11:10:40;8.23;;;1.38;;
9310;SDS011;4694;52.464;13.480;2024-01-15T11:13:13;1.85;;;1.55;;
9310;SDS011;4694;52.464;13.480;2024-01-15T11:15:59;5.97;;;1.03;;
9310;SDS011;4694;52.464;13.480;2024-01-15T11:18:27;2.55;;;0.45;;
9310;SDS011;4694;52.464;13.480;2024-01-15T11:23:51;1.55;;;0.90;;
9310;SDS011;4694;52.464;13.480;2024-01-15T11:26:32;4.22;;;0.57;;
9310;SDS011;4694;52.464;13.480;2024-01-15T11:29:02;2.00;;;1.02;;
9310;SDS011;4694;52.464;13.480;2024-01-15T11:37:26;2.42;;;0.43;;
9310;SDS011;4694;52.464;13.480;2024-01-15T11:39:54;9.10;;;1.52;;
9310;SDS011;4694;52.464;13.480;2024-01-15T11:42:23;2.42;;;0.90;;
9310;SDS011;4694;52.464;13.480;2024-01-15T11:44:50;2.95;;;0.75;;
9310;SDS011;4694;52.464;13.480;2024-01-15T11:47:22;6.15;;;1.83;;
9310;SDS011;4694;52.464;13.480;2024-01-15T11:50:09;1.58;;;1.00;;
9310;SDS011;4694;52.464;13.480;2024-01-15T11:52:38;6.32;;;1.55;;
9310;SDS011;4694;52.464;13.480;2024-01-15T11:55:12;1.70;;;0.82;;
9310;SDS011;4694;52.464;13.480;2024-01-15T11:57:45;2.08;;;1.27;;
9310;SDS011;4694;52.464;13.480;2024-01-15T12:00:13;2.95;;;1.63;;
9310;SDS011;4694;52.464;13.480;2024-01-15T12:02:43;3.53;;;1.50;;
9310;SDS011;4694;52.464;13.480;2024-01-15T12:05:11;1.63;;;0.90;;
9310;SDS011;4694;52.464;13.480;2024-01-15T12:07:41;4.53;;;1.38;;
9310;SDS011;4694;52.464;13.480;2024-01-15T12:10:12;6.57;;;1.33;;
9310;SDS011;4694;52.464;13.480;2024-01-15T12:12:44;1.45;;;0.75;;
9310;SDS011;4694;52.464;13.480;2024-01-15T12:15:21;2.65;;;1.02;;
9310;SDS011;4694;52.464;13.480;2024-01-15T12:17:49;1.95;;;1.00;;
9310;SDS011;4694;52.464;13.480;2024-01-15T12:20:16;2.47;;;1.02;;
9310;SDS011;4694;52.464;13.480;2024-01-15T12:22:44;2.40;;;1.15;;
9310;SDS011;4694;52.464;13.480;2024-01-15T12:25:12;3.63;;;1.10;;
9310;SDS011;4694;52.464;13.480;2024-01-15T12:27:38;2.13;;;0.82;;
9310;SDS011;4694;52.464;13.480;2024-01-15T12:30:06;1.75;;;1.17;;
9310;SDS011;4694;52.464;13.480;2024-01-15T12:32:34;4.43;;;0.88;;
9310;SDS011;4694;52.464;13.480;2024-01-15T12:35:03;4.43;;;1.10;;
9310;SDS011;4694;52.464;13.480;2024-01-15T12:37:30;2.33;;;1.40;;
9310;SDS011;4694;52.464;13.480;2024-01-15T12:39:58;2.05;;;1.02;;
9310;SDS011;4694;52.464;13.480;2024-01-15T12:42:25;3.03;;;1.77;;
9310;SDS011;4694;52.464;13.480;2024-01-15T12:44:54;1.90;;;1.23;;
9310;SDS011;4694;52.464;13.480;2024-01-15T12:47:22;4.90;;;0.85;;
9310;SDS011;4694;52.464;13.480;2024-01-15T12:49:50;2.47;;;0.75;;
9310;SDS011;4694;52.464;13.480;2024-01-15T12:52:20;4.93;;;1.00;;
9310;SDS011;4694;52.464;13.480;2024-01-15T12:54:47;1.73;;;1.08;;
9310;SDS011;4694;52.464;13.480;2024-01-15T12:57:14;3.13;;;1.30;;
9310;SDS011;4694;52.464;13.480;2024-01-15T12:59:41;2.65;;;1.10;;
9310;SDS011;4694;52.464;13.480;2024-01-15T13:02:08;1.75;;;0.73;;
9310;SDS011;4694;52.464;13.480;2024-01-15T13:04:35;1.30;;;0.57;;
9310;SDS011;4694;52.464;13.480;2024-01-15T13:07:01;1.67;;;0.60;;
9310;SDS011;4694;52.464;13.480;2024-01-15T13:09:30;2.38;;;0.90;;
9310;SDS011;4694;52.464;13.480;2024-01-15T13:11:56;2.25;;;1.02;;
9310;SDS011;4694;52.464;13.480;2024-01-15T13:14:23;2.75;;;1.30;;
9310;SDS011;4694;52.464;13.480;2024-01-15T13:16:50;4.20;;;2.30;;
9310;SDS011;4694;52.464;13.480;2024-01-15T13:19:18;3.53;;;1.00;;
9310;SDS011;4694;52.464;13.480;2024-01-15T13:21:47;3.13;;;1.17;;
9310;SDS011;4694;52.464;13.480;2024-01-15T13:24:15;6.20;;;2.83;;
9310;SDS011;4694;52.464;13.480;2024-01-15T13:26:43;2.90;;;1.38;;
9310;SDS011;4694;52.464;13.480;2024-01-15T13:29:10;2.50;;;1.08;;
9310;SDS011;4694;52.464;13.480;2024-01-15T13:31:37;2.50;;;1.27;;
9310;SDS011;4694;52.464;13.480;2024-01-15T13:34:04;3.50;;;2.15;;
9310;SDS011;4694;52.464;13.480;2024-01-15T13:36:32;11.98;;;1.83;;
9310;SDS011;4694;52.464;13.480;2024-01-15T13:38:58;2.92;;;1.38;;
9310;SDS011;4694;52.464;13.480;2024-01-15T13:41:25;4.10;;;1.58;;
9310;SDS011;4694;52.464;13.480;2024-01-15T13:43:54;2.40;;;1.00;;
9310;SDS011;4694;52.464;13.480;2024-01-15T13:46:23;3.35;;;1.58;;
9310;SDS011;4694;52.464;13.480;2024-01-15T13:48:51;1.50;;;1.30;;
9310;SDS011;4694;52.464;13.480;2024-01-15T13:51:18;3.75;;;1.50;;
9310;SDS011;4694;52.464;13.480;2024-01-15T13:53:44;4.30;;;1.58;;
9310;SDS011;4694;52.464;13.480;2024-01-15T13:56:11;2.10;;;1.23;;
9310;SDS011;4694;52.464;13.480;2024-01-15T13:58:38;6.05;;;1.00;;
9310;SDS011;4694;52.464;13.480;2024-01-15T14:01:06;1.67;;;0.85;;
9310;SDS011;4694;52.464;13.480;2024-01-15T14:03:34;4.35;;;1.70;;
9310;SDS011;4694;52.464;13.480;2024-01-15T14:06:01;3.28;;;1.65;;
9310;SDS011;4694;52.464;13.480;2024-01-15T14:08:28;6.13;;;2.10;;
9310;SDS011;4694;52.464;13.480;2024-01-15T14:10:55;3.30;;;1.48;;
9310;SDS011;4694;52.464;13.480;2024-01-15T14:13:22;7.45;;;1.10;;
9310;SDS011;4694;52.464;13.480;2024-01-15T14:15:49;5.20;;;1.23;;
9310;SDS011;4694;52.464;13.480;2024-01-15T14:18:17;3.15;;;1.55;;
9310;SDS011;4694;52.464;13.480;2024-01-15T14:20:44;2.72;;;1.15;;
9310;SDS011;4694;52.464;13.480;2024-01-15T14:23:11;8.80;;;1.38;;
9310;SDS011;4694;52.464;13.480;2024-01-15T14:25:39;7.40;;;1.42;;
9310;SDS011;4694;52.464;13.480;2024-01-15T14:28:06;5.15;;;1.23;;
9310;SDS011;4694;52.464;13.480;2024-01-15T14:30:32;2.63;;;1.35;;
9310;SDS011;4694;52.464;13.480;2024-01-15T14:32:59;4.32;;;2.00;;
9310;SDS011;4694;52.464;13.480;2024-01-15T14:35:27;13.30;;;1.65;;
9310;SDS011;4694;52.464;13.480;2024-01-15T14:37:53;1.88;;;0.40;;
9310;SDS011;4694;52.464;13.480;2024-01-15T14:40:20;5.70;;;2.22;;
9310;SDS011;4694;52.464;13.480;2024-01-15T14:42:47;1.58;;;0.93;;
9310;SDS011;4694;52.464;13.480;2024-01-15T14:45:14;5.75;;;1.48;;
9310;SDS011;4694;52.464;13.480;2024-01-15T14:47:40;6.22;;;0.95;;
9310;SDS011;4694;52.464;13.480;2024-01-15T14:50:09;4.40;;;1.88;;
9310;SDS011;4694;52.464;13.480;2024-01-15T14:52:38;5.75;;;1.00;;
9310;SDS011;4694;52.464;13.480;2024-01-15T14:55:07;2.50;;;0.60;;
9310;SDS011;4694;52.464;13.480;2024-01-15T14:57:35;6.43;;;2.17;;
9310;SDS011;4694;52.464;13.480;2024-01-15T15:00:02;3.53;;;0.90;;
9310;SDS011;4694;52.464;13.480;2024-01-15T15:02:32;5.05;;;1.70;;
9310;SDS011;4694;52.464;13.480;2024-01-15T15:04:59;9.82;;;0.70;;